sensor_id;sensor_type;location;lat;lon;timestamp;P1;durP1;ratioP1;P2;durP2;ratioP2
58412;SDS011;44209;52.952;6.790;2023-08-08T00:00:49;5.30;;;3.08;;
58412;SDS011;44209;52.952;6.790;2023-08-08T00:03:15;6.53;;;3.40;;
58412;SDS011;44209;52.952;6.790;2023-08-08T00:05:41;4.88;;;3.28;;
58412;SDS011;44209;52.952;6.790;2023-08-08T00:08:07;6.82;;;3.60;;
58412;SDS011;44209;52.952;6.790;2023-08-08T00:10:32;6.18;;;3.92;;
58412;SDS011;44209;52.952;6.790;2023-08-08T00:12:58;7.13;;;4.00;;
58412;SDS011;44209;52.952;6.790;2023-08-08T00:15:24;6.85;;;3.95;;
58412;SDS011;44209;52.952;6.790;2023-08-08T00:17:49;4.10;;;3.60;;
58412;SDS011;44209;52.952;6.790;2023-08-08T00:20:15;5.97;;;3.83;;
58412;SDS011;44209;52.952;6.790;2023-08-08T00:22:41;5.45;;;3.85;;
58412;SDS011;44209;52.952;6.790;2023-08-08T00:25:07;5.35;;;4.20;;
58412;SDS011;44209;52.952;6.790;2023-08-08T00:27:33;5.38;;;3.55;;
58412;SDS011;44209;52.952;6.790;2023-08-08T00:29:59;5.80;;;4.25;;
58412;SDS011;44209;52.952;6.790;2023-08-08T00:32:25;5.20;;;3.80;;
58412;SDS011;44209;52.952;6.790;2023-08-08T00:34:51;4.72;;;4.10;;
58412;SDS011;44209;52.952;6.790;2023-08-08T00:37:17;6.00;;;3.85;;
58412;SDS011;44209;52.952;6.790;2023-08-08T00:39:43;5.78;;;3.75;;
58412;SDS011;44209;52.952;6.790;2023-08-08T00:42:11;4.80;;;3.72;;
58412;SDS011;44209;52.952;6.790;2023-08-08T00:44:38;5.22;;;3.92;;
58412;SDS011;44209;52.952;6.790;2023-08-08T00:47:06;5.45;;;4.07;;
58412;SDS011;44209;52.952;6.790;2023-08-08T00:49:35;6.10;;;3.67;;
58412;SDS011;44209;52.952;6.790;2023-08-08T00:52:02;5.65;;;3.63;;
58412;SDS011;44209;52.952;6.790;2023-08-08T00:54:28;7.18;;;3.88;;
58412;SDS011;44209;52.952;6.790;2023-08-08T00:56:54;7.10;;;4.00;;
58412;SDS011;44209;52.952;6.790;2023-08-08T00:59:20;6.88;;;3.60;;
58412;SDS011;44209;52.952;6.790;2023-08-08T01:01:46;7.22;;;3.92;;
58412;SDS011;44209;52.952;6.790;2023-08-08T01:04:12;5.68;;;4.03;;
58412;SDS011;44209;52.952;6.790;2023-08-08T01:06:43;7.55;;;4.30;;
58412;SDS011;44209;52.952;6.790;2023-08-08T01:11:49;7.35;;;3.92;;
58412;SDS011;44209;52.952;6.790;2023-08-08T01:14:16;6.25;;;4.05;;
58412;SDS011;44209;52.952;6.790;2023-08-08T01:16:44;7.07;;;3.75;;
58412;SDS011;44209;52.952;6.790;2023-08-08T01:19:11;4.85;;;3.75;;
58412;SDS011;44209;52.952;6.790;2023-08-08T01:21:44;5.63;;;3.72;;
58412;SDS011;44209;52.952;6.790;2023-08-08T01:24:15;5.88;;;4.20;;
58412;SDS011;44209;52.952;6.790;2023-08-08T01:26:48;6.35;;;3.90;;
58412;SDS011;44209;52.952;6.790;2023-08-08T01:29:14;5.55;;;3.30;;
58412;SDS011;44209;52.952;6.790;2023-08-08T01:31:40;4.28;;;3.38;;
58412;SDS011;44209;52.952;6.790;2023-08-08T01:34:06;5.80;;;4.15;;
58412;SDS011;44209;52.952;6.790;2023-08-08T01:36:35;4.00;;;3.58;;
58412;SDS011;44209;52.952;6.790;2023-08-08T01:39:08;4.47;;;3.60;;
58412;SDS011;44209;52.952;6.790;2023-08-08T01:41:39;5.75;;;3.85;;
58412;SDS011;44209;52.952;6.790;2023-08-08T01:44:07;6.75;;;3.53;;
58412;SDS011;44209;52.952;6.790;2023-08-08T01:46:33;4.15;;;3.75;;
58412;SDS011;44209;52.952;6.790;2023-08-08T01:49:01;6.32;;;4.43;;
58412;SDS011;44209;52.952;6.790;2023-08-08T01:51:27;7.15;;;4.38;;
58412;SDS011;44209;52.952;6.790;2023-08-08T01:53:53;4.88;;;4.07;;
58412;SDS011;44209;52.952;6.790;2023-08-08T01:56:18;6.43;;;4.50;;
58412;SDS011;44209;52.952;6.790;2023-08-08T01:58:44;5.47;;;4.25;;
58412;SDS011;44209;52.952;6.790;2023-08-08T02:01:10;7.55;;;4.68;;
58412;SDS011;44209;52.952;6.790;2023-08-08T02:03:35;6.85;;;4.55;;
58412;SDS011;44209;52.952;6.790;2023-08-08T02:06:01;7.30;;;4.60;;
58412;SDS011;44209;52.952;6.790;2023-08-08T02:08:27;5.85;;;4.32;;
58412;SDS011;44209;52.952;6.790;2023-08-08T02:10:52;7.47;;;4.55;;
58412;SDS011;44209;52.952;6.790;2023-08-08T02:13:18;5.65;;;4.55;;
58412;SDS011;44209;52.952;6.790;2023-08-08T02:15:44;4.43;;;4.03;;
58412;SDS011;44209;52.952;6.790;2023-08-08T02:18:10;12.85;;;5.10;;
58412;SDS011;44209;52.952;6.790;2023-08-08T02:20:36;6.65;;;4.22;;
58412;SDS011;44209;52.952;6.790;2023-08-08T02:23:02;7.43;;;4.47;;
58412;SDS011;44209;52.952;6.790;2023-08-08T02:25:28;6.68;;;5.03;;
58412;SDS011;44209;52.952;6.790;2023-08-08T02:27:55;5.35;;;4.55;;
58412;SDS011;44209;52.952;6.790;2023-08-08T02:30:21;7.72;;;4.70;;
58412;SDS011;44209;52.952;6.790;2023-08-08T02:32:47;7.93;;;5.07;;
58412;SDS011;44209;52.952;6.790;2023-08-08T02:35:13;6.18;;;4.25;;
58412;SDS011;44209;52.952;6.790;2023-08-08T02:37:38;7.00;;;4.78;;
58412;SDS011;44209;52.952;6.790;2023-08-08T02:40:05;6.45;;;4.47;;
58412;SDS011;44209;52.952;6.790;2023-08-08T02:42:31;7.40;;;4.10;;
58412;SDS011;44209;52.952;6.790;2023-08-08T02:44:57;6.13;;;4.50;;
58412;SDS011;44209;52.952;6.790;2023-08-08T02:47:22;6.03;;;4.63;;
58412;SDS011;44209;52.952;6.790;2023-08-08T02:49:49;5.40;;;4.00;;
58412;SDS011;44209;52.952;6.790;2023-08-08T02:52:15;9.32;;;4.93;;
58412;SDS011;44209;52.952;6.790;2023-08-08T02:54:41;7.78;;;4.90;;
58412;SDS011;44209;52.952;6.790;2023-08-08T02:57:06;6.57;;;4.25;;
58412;SDS011;44209;52.952;6.790;2023-08-08T02:59:32;9.93;;;4.65;;
58412;SDS011;44209;52.952;6.790;2023-08-08T03:01:58;7.07;;;5.25;;
58412;SDS011;44209;52.952;6.790;2023-08-08T03:04:23;6.50;;;4.72;;
58412;SDS011;44209;52.952;6.790;2023-08-08T03:06:49;8.27;;;5.00;;
58412;SDS011;44209;52.952;6.790;2023-08-08T03:09:15;8.32;;;4.75;;
58412;SDS011;44209;52.952;6.790;2023-08-08T03:11:40;6.53;;;4.78;;
58412;SDS011;44209;52.952;6.790;2023-08-08T03:14:07;7.88;;;4.25;;
58412;SDS011;44209;52.952;6.790;2023-08-08T03:16:34;6.25;;;4.53;;
58412;SDS011;44209;52.952;6.790;2023-08-08T03:18:59;8.85;;;4.20;;
58412;SDS011;44209;52.952;6.790;2023-08-08T03:21:25;11.02;;;5.22;;
58412;SDS011;44209;52.952;6.790;2023-08-08T03:23:51;8.18;;;4.72;;
58412;SDS011;44209;52.952;6.790;2023-08-08T03:26:16;6.78;;;4.32;;
58412;SDS011;44209;52.952;6.790;2023-08-08T03:28:42;8.30;;;4.60;;
58412;SDS011;44209;52.952;6.790;2023-08-08T03:31:08;5.35;;;4.30;;
58412;SDS011;44209;52.952;6.790;2023-08-08T03:33:33;6.45;;;4.18;;
58412;SDS011;44209;52.952;6.790;2023-08-08T03:35:59;6.85;;;4.53;;
58412;SDS011;44209;52.952;6.790;2023-08-08T03:38:25;7.97;;;4.90;;
58412;SDS011;44209;52.952;6.790;2023-08-08T03:40:50;7.63;;;4.43;;
58412;SDS011;44209;52.952;6.790;2023-08-08T03:43:16;7.63;;;5.18;;
58412;SDS011;44209;52.952;6.790;2023-08-08T03:45:42;5.43;;;4.72;;
58412;SDS011;44209;52.952;6.790;2023-08-08T03:48:09;7.00;;;4.50;;
58412;SDS011;44209;52.952;6.790;2023-08-08T03:50:34;6.50;;;4.90;;
58412;SDS011;44209;52.952;6.790;2023-08-08T03:53:00;7.45;;;4.75;;
58412;SDS011;44209;52.952;6.790;2023-08-08T03:55:26;8.57;;;5.40;;
58412;SDS011;44209;52.952;6.790;2023-08-08T03:57:51;7.13;;;4.80;;
58412;SDS011;44209;52.952;6.790;2023-08-08T04:00:17;7.40;;;4.82;;
58412;SDS011;44209;52.952;6.790;2023-08-08T04:02:43;9.10;;;4.70;;
58412;SDS011;44209;52.952;6.790;2023-08-08T04:05:09;12.10;;;4.72;;
58412;SDS011;44209;52.952;6.790;2023-08-08T04:07:34;8.40;;;4.60;;
58412;SDS011;44209;52.952;6.790;2023-08-08T04:10:00;7.65;;;4.20;;
58412;SDS011;44209;52.952;6.790;2023-08-08T04:12:26;10.50;;;4.80;;
58412;SDS011;44209;52.952;6.790;2023-08-08T04:14:52;5.93;;;4.18;;
58412;SDS011;44209;52.952;6.790;2023-08-08T04:17:17;8.93;;;4.10;;
58412;SDS011;44209;52.952;6.790;2023-08-08T04:19:43;10.80;;;3.95;;
58412;SDS011;44209;52.952;6.790;2023-08-08T04:22:09;8.70;;;4.65;;
58412;SDS011;44209;52.952;6.790;2023-08-08T04:24:35;7.82;;;4.05;;
58412;SDS011;44209;52.952;6.790;2023-08-08T04:27:01;10.57;;;4.38;;
58412;SDS011;44209;52.952;6.790;2023-08-08T04:29:26;6.78;;;3.90;;
58412;SDS011;44209;52.952;6.790;2023-08-08T04:31:52;7.28;;;3.97;;
58412;SDS011;44209;52.952;6.790;2023-08-08T04:34:18;6.55;;;3.65;;
58412;SDS011;44209;52.952;6.790;2023-08-08T04:36:43;6.35;;;3.80;;
58412;SDS011;44209;52.952;6.790;2023-08-08T04:39:09;5.38;;;3.45;;
58412;SDS011;44209;52.952;6.790;2023-08-08T04:41:35;5.97;;;3.13;;
58412;SDS011;44209;52.952;6.790;2023-08-08T04:44:00;6.10;;;3.30;;
58412;SDS011;44209;52.952;6.790;2023-08-08T04:46:26;5.22;;;3.00;;
58412;SDS011;44209;52.952;6.790;2023-08-08T04:48:52;4.53;;;2.95;;
58412;SDS011;44209;52.952;6.790;2023-08-08T04:51:17;7.47;;;3.03;;
58412;SDS011;44209;52.952;6.790;2023-08-08T04:53:43;6.75;;;2.85;;
58412;SDS011;44209;52.952;6.790;2023-08-08T04:56:09;6.57;;;2.97;;
58412;SDS011;44209;52.952;6.790;2023-08-08T04:58:34;5.35;;;2.30;;
58412;SDS011;44209;52.952;6.790;2023-08-08T05:01:00;6.45;;;2.60;;
58412;SDS011;44209;52.952;6.790;2023-08-08T05:03:26;9.63;;;2.75;;
58412;SDS011;44209;52.952;6.790;2023-08-08T05:05:51;5.50;;;3.05;;
58412;SDS011;44209;52.952;6.790;2023-08-08T05:08:17;7.10;;;2.40;;
58412;SDS011;44209;52.952;6.790;2023-08-08T05:10:43;6.47;;;2.95;;
58412;SDS011;44209;52.952;6.790;2023-08-08T05:13:09;7.50;;;2.47;;
58412;SDS011;44209;52.952;6.790;2023-08-08T05:15:35;5.82;;;2.90;;
58412;SDS011;44209;52.952;6.790;2023-08-08T05:18:01;9.38;;;2.78;;
58412;SDS011;44209;52.952;6.790;2023-08-08T05:20:27;4.30;;;2.40;;
58412;SDS011;44209;52.952;6.790;2023-08-08T05:22:52;8.88;;;2.92;;
58412;SDS011;44209;52.952;6.790;2023-08-08T05:25:18;6.60;;;2.40;;
58412;SDS011;44209;52.952;6.790;2023-08-08T05:27:43;5.35;;;2.53;;
58412;SDS011;44209;52.952;6.790;2023-08-08T05:30:09;8.73;;;2.70;;
58412;SDS011;44209;52.952;6.790;2023-08-08T05:32:35;4.82;;;2.40;;
58412;SDS011;44209;52.952;6.790;2023-08-08T05:35:01;7.10;;;2.60;;
58412;SDS011;44209;52.952;6.790;2023-08-08T05:37:29;5.78;;;2.58;;
58412;SDS011;44209;52.952;6.790;2023-08-08T05:39:55;4.97;;;2.17;;
58412;SDS011;44209;52.952;6.790;2023-08-08T05:42:20;7.85;;;2.35;;
58412;SDS011;44209;52.952;6.790;2023-08-08T05:44:46;5.00;;;2.20;;
58412;SDS011;44209;52.952;6.790;2023-08-08T05:47:12;5.25;;;2.10;;
58412;SDS011;44209;52.952;6.790;2023-08-08T05:49:38;5.25;;;2.00;;
58412;SDS011;44209;52.952;6.790;2023-08-08T05:52:07;4.00;;;1.90;;
58412;SDS011;44209;52.952;6.790;2023-08-08T05:54:33;3.33;;;1.77;;
58412;SDS011;44209;52.952;6.790;2023-08-08T05:57:01;6.07;;;2.03;;
58412;SDS011;44209;52.952;6.790;2023-08-08T05:59:27;5.80;;;1.63;;
58412;SDS011;44209;52.952;6.790;2023-08-08T06:01:53;4.60;;;1.80;;
58412;SDS011;44209;52.952;6.790;2023-08-08T06:04:19;6.82;;;2.28;;
58412;SDS011;44209;52.952;6.790;2023-08-08T06:06:45;6.60;;;2.00;;
58412;SDS011;44209;52.952;6.790;2023-08-08T06:09:13;3.25;;;2.08;;
58412;SDS011;44209;52.952;6.790;2023-08-08T06:11:40;5.45;;;1.83;;
58412;SDS011;44209;52.952;6.790;2023-08-08T06:14:05;2.17;;;1.42;;
58412;SDS011;44209;52.952;6.790;2023-08-08T06:16:31;4.72;;;1.55;;
58412;SDS011;44209;52.952;6.790;2023-08-08T06:18:57;7.78;;;1.70;;
58412;SDS011;44209;52.952;6.790;2023-08-08T06:21:22;2.95;;;1.45;;
58412;SDS011;44209;52.952;6.790;2023-08-08T06:23:48;3.15;;;1.48;;
58412;SDS011;44209;52.952;6.790;2023-08-08T06:26:15;3.47;;;1.65;;
58412;SDS011;44209;52.952;6.790;2023-08-08T06:28:40;5.47;;;1.67;;
58412;SDS011;44209;52.952;6.790;2023-08-08T06:31:06;4.05;;;1.98;;
58412;SDS011;44209;52.952;6.790;2023-08-08T06:33:32;5.22;;;1.90;;
58412;SDS011;44209;52.952;6.790;2023-08-08T06:35:58;3.72;;;1.63;;
58412;SDS011;44209;52.952;6.790;2023-08-08T06:38:23;6.18;;;1.70;;
58412;SDS011;44209;52.952;6.790;2023-08-08T06:40:49;6.72;;;1.95;;
58412;SDS011;44209;52.952;6.790;2023-08-08T06:43:15;3.92;;;1.60;;
58412;SDS011;44209;52.952;6.790;2023-08-08T06:45:41;5.93;;;1.65;;
58412;SDS011;44209;52.952;6.790;2023-08-08T06:48:07;4.93;;;1.40;;
58412;SDS011;44209;52.952;6.790;2023-08-08T06:50:33;6.72;;;1.90;;
58412;SDS011;44209;52.952;6.790;2023-08-08T06:52:58;5.03;;;1.75;;
58412;SDS011;44209;52.952;6.790;2023-08-08T06:55:24;5.82;;;1.65;;
58412;SDS011;44209;52.952;6.790;2023-08-08T06:57:50;5.15;;;1.58;;
58412;SDS011;44209;52.952;6.790;2023-08-08T07:00:16;5.95;;;1.50;;
58412;SDS011;44209;52.952;6.790;2023-08-08T07:02:41;5.05;;;1.73;;
58412;SDS011;44209;52.952;6.790;2023-08-08T07:05:07;4.82;;;1.52;;
58412;SDS011;44209;52.952;6.790;2023-08-08T07:07:35;6.63;;;1.77;;
58412;SDS011;44209;52.952;6.790;2023-08-08T07:10:00;4.35;;;1.50;;
58412;SDS011;44209;52.952;6.790;2023-08-08T07:12:27;5.05;;;1.50;;
58412;SDS011;44209;52.952;6.790;2023-08-08T07:14:52;4.22;;;1.45;;
58412;SDS011;44209;52.952;6.790;2023-08-08T07:17:18;4.78;;;1.67;;
58412;SDS011;44209;52.952;6.790;2023-08-08T07:19:44;4.13;;;1.42;;
58412;SDS011;44209;52.952;6.790;2023-08-08T07:22:10;5.43;;;1.65;;
58412;SDS011;44209;52.952;6.790;2023-08-08T07:24:36;3.53;;;1.30;;
58412;SDS011;44209;52.952;6.790;2023-08-08T07:27:04;5.05;;;1.70;;
58412;SDS011;44209;52.952;6.790;2023-08-08T07:29:30;3.03;;;1.38;;
58412;SDS011;44209;52.952;6.790;2023-08-08T07:31:57;4.55;;;1.33;;
58412;SDS011;44209;52.952;6.790;2023-08-08T07:34:23;2.92;;;1.45;;
58412;SDS011;44209;52.952;6.790;2023-08-08T07:36:50;2.88;;;1.10;;
58412;SDS011;44209;52.952;6.790;2023-08-08T07:39:15;2.67;;;1.40;;
58412;SDS011;44209;52.952;6.790;2023-08-08T07:41:41;4.78;;;1.50;;
58412;SDS011;44209;52.952;6.790;2023-08-08T07:44:07;2.92;;;1.50;;
58412;SDS011;44209;52.952;6.790;2023-08-08T07:46:33;4.75;;;1.52;;
58412;SDS011;44209;52.952;6.790;2023-08-08T07:48:59;5.88;;;1.58;;
58412;SDS011;44209;52.952;6.790;2023-08-08T07:51:28;3.80;;;1.23;;
58412;SDS011;44209;52.952;6.790;2023-08-08T07:53:54;5.63;;;1.70;;
58412;SDS011;44209;52.952;6.790;2023-08-08T07:56:20;4.82;;;1.30;;
58412;SDS011;44209;52.952;6.790;2023-08-08T07:58:45;3.17;;;1.40;;
58412;SDS011;44209;52.952;6.790;2023-08-08T08:01:11;4.38;;;1.60;;
58412;SDS011;44209;52.952;6.790;2023-08-08T08:03:38;2.83;;;1.20;;
58412;SDS011;44209;52.952;6.790;2023-08-08T08:06:05;5.05;;;1.40;;
58412;SDS011;44209;52.952;6.790;2023-08-08T08:08:31;2.35;;;1.13;;
58412;SDS011;44209;52.952;6.790;2023-08-08T08:10:56;3.63;;;1.30;;
58412;SDS011;44209;52.952;6.790;2023-08-08T08:13:22;2.40;;;1.00;;
58412;SDS011;44209;52.952;6.790;2023-08-08T08:15:48;5.30;;;1.42;;
58412;SDS011;44209;52.952;6.790;2023-08-08T08:18:13;5.40;;;1.63;;
58412;SDS011;44209;52.952;6.790;2023-08-08T08:20:42;4.45;;;1.40;;
58412;SDS011;44209;52.952;6.790;2023-08-08T08:23:10;2.78;;;1.10;;
58412;SDS011;44209;52.952;6.790;2023-08-08T08:25:36;8.43;;;2.00;;
58412;SDS011;44209;52.952;6.790;2023-08-08T08:28:01;2.58;;;1.08;;
58412;SDS011;44209;52.952;6.790;2023-08-08T08:30:27;5.65;;;1.45;;
58412;SDS011;44209;52.952;6.790;2023-08-08T08:32:53;2.85;;;1.10;;
58412;SDS011;44209;52.952;6.790;2023-08-08T08:35:19;5.03;;;1.40;;
58412;SDS011;44209;52.952;6.790;2023-08-08T08:37:45;6.20;;;1.45;;
58412;SDS011;44209;52.952;6.790;2023-08-08T08:40:11;3.17;;;1.33;;
58412;SDS011;44209;52.952;6.790;2023-08-08T08:42:37;4.93;;;1.63;;
58412;SDS011;44209;52.952;6.790;2023-08-08T08:45:05;3.97;;;1.25;;
58412;SDS011;44209;52.952;6.790;2023-08-08T08:47:34;3.95;;;1.30;;
58412;SDS011;44209;52.952;6.790;2023-08-08T08:50:02;4.20;;;1.25;;
58412;SDS011;44209;52.952;6.790;2023-08-08T08:52:29;3.45;;;1.15;;
58412;SDS011;44209;52.952;6.790;2023-08-08T08:54:55;3.30;;;1.20;;
58412;SDS011;44209;52.952;6.790;2023-08-08T08:57:22;6.80;;;1.23;;
58412;SDS011;44209;52.952;6.790;2023-08-08T08:59:51;3.10;;;1.25;;
58412;SDS011;44209;52.952;6.790;2023-08-08T09:02:20;3.00;;;1.35;;
58412;SDS011;44209;52.952;6.790;2023-08-08T09:04:46;6.32;;;1.40;;
58412;SDS011;44209;52.952;6.790;2023-08-08T09:07:12;3.78;;;1.50;;
58412;SDS011;44209;52.952;6.790;2023-08-08T09:09:40;4.90;;;1.77;;
58412;SDS011;44209;52.952;6.790;2023-08-08T09:12:08;3.22;;;1.60;;
58412;SDS011;44209;52.952;6.790;2023-08-08T09:14:34;5.55;;;1.70;;
58412;SDS011;44209;52.952;6.790;2023-08-08T09:17:09;4.28;;;1.92;;
58412;SDS011;44209;52.952;6.790;2023-08-08T09:19:42;3.15;;;1.38;;
58412;SDS011;44209;52.952;6.790;2023-08-08T09:22:14;7.82;;;1.63;;
58412;SDS011;44209;52.952;6.790;2023-08-08T09:24:40;3.40;;;1.30;;
58412;SDS011;44209;52.952;6.790;2023-08-08T09:27:09;4.82;;;1.70;;
58412;SDS011;44209;52.952;6.790;2023-08-08T09:29:35;5.15;;;1.70;;
58412;SDS011;44209;52.952;6.790;2023-08-08T09:32:08;2.42;;;1.48;;
58412;SDS011;44209;52.952;6.790;2023-08-08T09:34:34;3.42;;;1.45;;
58412;SDS011;44209;52.952;6.790;2023-08-08T09:37:00;4.40;;;1.77;;
58412;SDS011;44209;52.952;6.790;2023-08-08T09:39:27;3.72;;;1.85;;
58412;SDS011;44209;52.952;6.790;2023-08-08T09:41:55;3.63;;;1.60;;
58412;SDS011;44209;52.952;6.790;2023-08-08T09:44:24;3.38;;;1.83;;
58412;SDS011;44209;52.952;6.790;2023-08-08T09:46:52;4.03;;;1.60;;
58412;SDS011;44209;52.952;6.790;2023-08-08T09:49:18;5.28;;;1.80;;
58412;SDS011;44209;52.952;6.790;2023-08-08T09:51:45;4.80;;;1.90;;
58412;SDS011;44209;52.952;6.790;2023-08-08T09:54:11;2.92;;;1.70;;
58412;SDS011;44209;52.952;6.790;2023-08-08T09:56:38;5.28;;;1.90;;
58412;SDS011;44209;52.952;6.790;2023-08-08T09:59:05;2.90;;;1.60;;
58412;SDS011;44209;52.952;6.790;2023-08-08T10:01:31;3.33;;;1.75;;
58412;SDS011;44209;52.952;6.790;2023-08-08T10:03:57;3.95;;;1.40;;
58412;SDS011;44209;52.952;6.790;2023-08-08T10:06:24;5.53;;;1.50;;
58412;SDS011;44209;52.952;6.790;2023-08-08T10:08:52;4.63;;;1.50;;
58412;SDS011;44209;52.952;6.790;2023-08-08T10:11:18;3.60;;;1.65;;
58412;SDS011;44209;52.952;6.790;2023-08-08T10:13:48;4.25;;;1.77;;
58412;SDS011;44209;52.952;6.790;2023-08-08T10:16:16;3.00;;;1.40;;
58412;SDS011;44209;52.952;6.790;2023-08-08T10:18:43;4.05;;;1.50;;
58412;SDS011;44209;52.952;6.790;2023-08-08T10:21:11;6.30;;;1.85;;
58412;SDS011;44209;52.952;6.790;2023-08-08T10:23:38;5.18;;;1.58;;
58412;SDS011;44209;52.952;6.790;2023-08-08T10:26:17;4.38;;;1.42;;
58412;SDS011;44209;52.952;6.790;2023-08-08T10:28:57;2.75;;;1.30;;
58412;SDS011;44209;52.952;6.790;2023-08-08T10:31:23;2.33;;;1.42;;
58412;SDS011;44209;52.952;6.790;2023-08-08T10:33:49;4.78;;;1.70;;
58412;SDS011;44209;52.952;6.790;2023-08-08T10:36:25;4.13;;;1.58;;
58412;SDS011;44209;52.952;6.790;2023-08-08T10:38:51;3.45;;;1.42;;
58412;SDS011;44209;52.952;6.790;2023-08-08T10:41:18;3.60;;;1.50;;
58412;SDS011;44209;52.952;6.790;2023-08-08T10:43:57;4.22;;;1.33;;
58412;SDS011;44209;52.952;6.790;2023-08-08T10:46:27;4.25;;;1.40;;
58412;SDS011;44209;52.952;6.790;2023-08-08T10:48:56;5.30;;;1.60;;
58412;SDS011;44209;52.952;6.790;2023-08-08T10:51:36;3.88;;;1.45;;
58412;SDS011;44209;52.952;6.790;2023-08-08T10:54:14;3.58;;;1.30;;
58412;SDS011;44209;52.952;6.790;2023-08-08T10:56:48;3.65;;;1.23;;
58412;SDS011;44209;52.952;6.790;2023-08-08T10:59:20;3.10;;;1.40;;
58412;SDS011;44209;52.952;6.790;2023-08-08T11:01:51;4.07;;;1.30;;
58412;SDS011;44209;52.952;6.790;2023-08-08T11:04:18;2.15;;;1.42;;
58412;SDS011;44209;52.952;6.790;2023-08-08T11:06:45;4.25;;;1.27;;
58412;SDS011;44209;52.952;6.790;2023-08-08T11:09:12;5.03;;;1.20;;
58412;SDS011;44209;52.952;6.790;2023-08-08T11:11:39;3.97;;;1.42;;
58412;SDS011;44209;52.952;6.790;2023-08-08T11:14:13;3.03;;;1.30;;
58412;SDS011;44209;52.952;6.790;2023-08-08T11:16:39;4.57;;;1.45;;
58412;SDS011;44209;52.952;6.790;2023-08-08T11:19:06;3.60;;;1.45;;
58412;SDS011;44209;52.952;6.790;2023-08-08T11:21:42;3.00;;;1.50;;
58412;SDS011;44209;52.952;6.790;2023-08-08T11:24:09;2.08;;;1.40;;
58412;SDS011;44209;52.952;6.790;2023-08-08T11:26:36;3.88;;;1.35;;
58412;SDS011;44209;52.952;6.790;2023-08-08T11:29:03;4.35;;;1.40;;
58412;SDS011;44209;52.952;6.790;2023-08-08T11:31:31;4.72;;;1.60;;
58412;SDS011;44209;52.952;6.790;2023-08-08T11:33:59;2.53;;;1.35;;
58412;SDS011;44209;52.952;6.790;2023-08-08T11:36:28;4.53;;;1.70;;
58412;SDS011;44209;52.952;6.790;2023-08-08T11:38:56;5.50;;;1.77;;
58412;SDS011;44209;52.952;6.790;2023-08-08T11:41:23;4.20;;;1.83;;
58412;SDS011;44209;52.952;6.790;2023-08-08T11:43:52;3.13;;;1.48;;
58412;SDS011;44209;52.952;6.790;2023-08-08T11:46:18;4.55;;;1.45;;
58412;SDS011;44209;52.952;6.790;2023-08-08T11:48:49;4.70;;;1.33;;
58412;SDS011;44209;52.952;6.790;2023-08-08T11:51:15;3.80;;;1.65;;
58412;SDS011;44209;52.952;6.790;2023-08-08T11:53:51;4.55;;;1.33;;
58412;SDS011;44209;52.952;6.790;2023-08-08T11:56:21;4.85;;;1.60;;
58412;SDS011;44209;52.952;6.790;2023-08-08T11:58:49;5.15;;;1.42;;
58412;SDS011;44209;52.952;6.790;2023-08-08T12:01:22;4.50;;;1.42;;
58412;SDS011;44209;52.952;6.790;2023-08-08T12:03:49;5.70;;;1.27;;
58412;SDS011;44209;52.952;6.790;2023-08-08T12:06:15;3.15;;;1.20;;
58412;SDS011;44209;52.952;6.790;2023-08-08T12:08:42;3.75;;;1.58;;
58412;SDS011;44209;52.952;6.790;2023-08-08T12:11:09;4.65;;;1.55;;
58412;SDS011;44209;52.952;6.790;2023-08-08T12:13:41;3.03;;;1.20;;
58412;SDS011;44209;52.952;6.790;2023-08-08T12:16:09;2.88;;;1.10;;
58412;SDS011;44209;52.952;6.790;2023-08-08T12:18:37;2.90;;;1.00;;
58412;SDS011;44209;52.952;6.790;2023-08-08T12:21:06;4.50;;;1.50;;
58412;SDS011;44209;52.952;6.790;2023-08-08T12:23:35;2.88;;;1.30;;
58412;SDS011;44209;52.952;6.790;2023-08-08T12:26:05;2.38;;;1.23;;
58412;SDS011;44209;52.952;6.790;2023-08-08T12:28:32;6.22;;;1.58;;
58412;SDS011;44209;52.952;6.790;2023-08-08T12:30:58;3.95;;;1.15;;
58412;SDS011;44209;52.952;6.790;2023-08-08T12:33:24;3.30;;;1.17;;
58412;SDS011;44209;52.952;6.790;2023-08-08T12:35:50;4.35;;;1.50;;
58412;SDS011;44209;52.952;6.790;2023-08-08T12:38:15;5.32;;;1.33;;
58412;SDS011;44209;52.952;6.790;2023-08-08T12:40:41;4.85;;;1.33;;
58412;SDS011;44209;52.952;6.790;2023-08-08T12:43:09;3.17;;;1.40;;
58412;SDS011;44209;52.952;6.790;2023-08-08T12:45:38;3.03;;;1.13;;
58412;SDS011;44209;52.952;6.790;2023-08-08T12:48:05;3.40;;;1.25;;
58412;SDS011;44209;52.952;6.790;2023-08-08T12:50:31;2.75;;;0.90;;
58412;SDS011;44209;52.952;6.790;2023-08-08T12:52:57;1.77;;;1.00;;
58412;SDS011;44209;52.952;6.790;2023-08-08T12:55:22;2.15;;;0.90;;
58412;SDS011;44209;52.952;6.790;2023-08-08T12:57:48;2.42;;;0.90;;
58412;SDS011;44209;52.952;6.790;2023-08-08T13:00:14;3.40;;;1.00;;
58412;SDS011;44209;52.952;6.790;2023-08-08T13:02:41;1.75;;;0.70;;
58412;SDS011;44209;52.952;6.790;2023-08-08T13:05:08;3.10;;;1.25;;
58412;SDS011;44209;52.952;6.790;2023-08-08T13:07:34;2.45;;;0.95;;
58412;SDS011;44209;52.952;6.790;2023-08-08T13:10:00;4.53;;;1.38;;
58412;SDS011;44209;52.952;6.790;2023-08-08T13:12:26;3.08;;;1.13;;
58412;SDS011;44209;52.952;6.790;2023-08-08T13:14:52;3.42;;;1.20;;
58412;SDS011;44209;52.952;6.790;2023-08-08T13:17:17;5.47;;;1.30;;
58412;SDS011;44209;52.952;6.790;2023-08-08T13:19:44;4.53;;;1.35;;
58412;SDS011;44209;52.952;6.790;2023-08-08T13:22:10;2.80;;;1.15;;
58412;SDS011;44209;52.952;6.790;2023-08-08T13:24:37;5.20;;;1.83;;
58412;SDS011;44209;52.952;6.790;2023-08-08T13:27:03;4.85;;;1.60;;
58412;SDS011;44209;52.952;6.790;2023-08-08T13:29:29;4.18;;;1.55;;
58412;SDS011;44209;52.952;6.790;2023-08-08T13:31:55;3.15;;;1.60;;
58412;SDS011;44209;52.952;6.790;2023-08-08T13:34:21;4.82;;;1.70;;
58412;SDS011;44209;52.952;6.790;2023-08-08T13:36:47;2.90;;;1.30;;
58412;SDS011;44209;52.952;6.790;2023-08-08T13:39:13;5.32;;;1.40;;
58412;SDS011;44209;52.952;6.790;2023-08-08T13:41:38;6.75;;;1.30;;
58412;SDS011;44209;52.952;6.790;2023-08-08T13:44:04;5.28;;;1.27;;
58412;SDS011;44209;52.952;6.790;2023-08-08T13:46:30;2.95;;;1.20;;
58412;SDS011;44209;52.952;6.790;2023-08-08T13:48:56;5.47;;;1.42;;
58412;SDS011;44209;52.952;6.790;2023-08-08T13:51:22;4.32;;;1.58;;
58412;SDS011;44209;52.952;6.790;2023-08-08T13:53:48;4.00;;;1.27;;
58412;SDS011;44209;52.952;6.790;2023-08-08T13:56:16;2.13;;;1.40;;
58412;SDS011;44209;52.952;6.790;2023-08-08T13:58:42;5.10;;;1.55;;
58412;SDS011;44209;52.952;6.790;2023-08-08T14:01:08;3.83;;;1.40;;
58412;SDS011;44209;52.952;6.790;2023-08-08T14:03:34;4.47;;;1.60;;
58412;SDS011;44209;52.952;6.790;2023-08-08T14:06:00;5.97;;;1.45;;
58412;SDS011;44209;52.952;6.790;2023-08-08T14:08:26;4.40;;;1.63;;
58412;SDS011;44209;52.952;6.790;2023-08-08T14:10:51;3.38;;;1.65;;
58412;SDS011;44209;52.952;6.790;2023-08-08T14:13:17;4.35;;;1.30;;
58412;SDS011;44209;52.952;6.790;2023-08-08T14:15:44;3.88;;;1.30;;
58412;SDS011;44209;52.952;6.790;2023-08-08T14:18:10;3.65;;;1.65;;
58412;SDS011;44209;52.952;6.790;2023-08-08T14:20:36;2.75;;;1.30;;
58412;SDS011;44209;52.952;6.790;2023-08-08T14:23:03;3.00;;;1.20;;
58412;SDS011;44209;52.952;6.790;2023-08-08T14:25:29;3.92;;;1.00;;
58412;SDS011;44209;52.952;6.790;2023-08-08T14:27:54;3.17;;;1.40;;
58412;SDS011;44209;52.952;6.790;2023-08-08T14:30:22;2.05;;;1.10;;
58412;SDS011;44209;52.952;6.790;2023-08-08T14:32:50;2.38;;;1.35;;
58412;SDS011;44209;52.952;6.790;2023-08-08T14:35:16;2.75;;;1.17;;
58412;SDS011;44209;52.952;6.790;2023-08-08T14:37:42;5.50;;;1.48;;
58412;SDS011;44209;52.952;6.790;2023-08-08T14:40:08;5.32;;;1.50;;
58412;SDS011;44209;52.952;6.790;2023-08-08T14:42:34;4.25;;;1.30;;
58412;SDS011;44209;52.952;6.790;2023-08-08T14:45:00;3.88;;;1.23;;
58412;SDS011;44209;52.952;6.790;2023-08-08T14:47:25;5.28;;;1.50;;